Time;durP1;ratioP1;P1;durP2;ratioP2;P2;SDS_P1;SDS_P2;PMS_P1;PMS_P2;Temp;Humidity;BMP_temperature;BMP_pressure;BME280_temperature;BME280_humidity;BME280_pressure;Samples;Min_cycle;Max_cycle;Signal;HPM_P1;HPM_P2
2021/05/08 00:00:55;;;;;;;8.90;5.20;;;;;;;10.31;100.00;98400.52;1781084;80;21077;-74
2021/05/08 00:03:22;;;;;;;7.83;5.22;;;;;;;10.30;100.00;98418.68;1780949;80;21200;-73
2021/05/08 00:05:50;;;;;;;11.53;5.30;;;;;;;10.28;100.00;98428.63;1781000;80;21679;-73
2021/05/08 00:08:17;;;;;;;7.35;5.15;;;;;;;10.25;100.00;98423.25;1776900;80;21211;-73
2021/05/08 00:10:45;;;;;;;8.23;5.08;;;;;;;10.22;100.00;98425.88;1720878;82;21516;-73
2021/05/08 00:13:13;;;;;;;7.22;5.03;;;;;;;10.20;100.00;98408.95;1750178;82;21119;-74
2021/05/08 00:15:42;;;;;;;8.63;4.97;;;;;;;10.17;100.00;98410.40;1763981;80;21596;-73
2021/05/08 00:18:09;;;;;;;5.97;4.67;;;;;;;10.14;100.00;98412.45;1781040;80;20946;-72
2021/05/08 00:20:38;;;;;;;10.78;4.62;;;;;;;10.12;100.00;98407.87;1781030;79;21140;-73
2021/05/08 00:23:07;;;;;;;6.90;4.53;;;;;;;10.13;100.00;98387.54;1767330;80;20949;-73
2021/05/08 00:25:36;;;;;;;8.20;5.55;;;;;;;10.11;100.00;98399.42;1736852;82;21182;-73
2021/05/08 00:28:04;;;;;;;6.67;5.05;;;;;;;10.09;100.00;98410.50;1750231;80;21145;-73
2021/05/08 00:30:32;;;;;;;7.67;5.25;;;;;;;10.07;100.00;98412.78;1750132;82;20986;-74
2021/05/08 00:33:00;;;;;;;8.23;5.83;;;;;;;10.07;100.00;98421.00;1750121;82;21604;-73
2021/05/08 00:35:28;;;;;;;8.50;6.50;;;;;;;10.07;100.00;98419.63;1750047;82;21064;-73
2021/05/08 00:37:56;;;;;;;9.90;6.58;;;;;;;10.08;100.00;98427.52;1731706;81;21155;-72
2021/05/08 00:40:24;;;;;;;10.25;5.72;;;;;;;10.09;100.00;98428.32;1759368;81;21371;-73
2021/05/08 00:42:54;;;;;;;8.95;5.47;;;;;;;10.09;100.00;98416.78;1759014;81;20952;-72
2021/05/08 00:45:22;;;;;;;7.83;5.10;;;;;;;10.09;100.00;98410.50;1758921;81;21143;-72
2021/05/08 00:47:50;;;;;;;8.48;5.83;;;;;;;10.08;100.00;98414.38;1759405;81;21701;-72
2021/05/08 00:50:20;;;;;;;8.38;5.05;;;;;;;10.05;100.00;98406.27;1759435;81;21187;-73
2021/05/08 00:52:47;;;;;;;6.95;5.15;;;;;;;10.03;100.00;98410.48;1759342;81;21364;-74
2021/05/08 00:55:15;;;;;;;5.85;4.90;;;;;;;10.04;100.00;98407.41;1759407;81;21544;-74
2021/05/08 00:57:45;;;;;;;7.87;5.05;;;;;;;10.07;100.00;98414.15;1759266;81;20986;-74
2021/05/08 01:00:15;;;;;;;8.08;5.58;;;;;;;10.10;100.00;98416.22;1759230;81;21578;-73
2021/05/08 01:02:43;;;;;;;8.93;5.28;;;;;;;10.13;100.00;98420.45;1759267;81;21050;-72
2021/05/08 01:05:12;;;;;;;9.75;5.33;;;;;;;10.15;100.00;98420.11;1759117;81;21144;-71
2021/05/08 01:07:40;;;;;;;10.08;5.45;;;;;;;10.15;100.00;98426.97;1758912;81;21170;-70
2021/05/08 01:10:10;;;;;;;5.60;4.97;;;;;;;10.16;100.00;98425.83;1759492;81;21051;-70
2021/05/08 01:12:38;;;;;;;8.45;5.22;;;;;;;10.15;100.00;98422.85;1733397;81;21197;-71
2021/05/08 01:15:10;;;;;;;7.33;5.35;;;;;;;10.14;100.00;98422.63;1727531;82;21093;-71
2021/05/08 01:17:39;;;;;;;10.98;5.47;;;;;;;10.13;100.00;98425.13;1704256;83;22357;-71
2021/05/08 01:20:10;;;;;;;7.67;4.55;;;;;;;10.10;100.00;98424.44;1704279;83;21504;-72
2021/05/08 01:22:39;;;;;;;6.65;5.40;;;;;;;10.08;100.00;98422.03;1729167;83;21480;-72
2021/05/08 01:25:15;;;;;;;9.10;5.72;;;;;;;10.06;100.00;98424.89;1729022;83;21151;-72
2021/05/08 01:27:55;;;;;;;9.90;5.37;;;;;;;10.03;100.00;98420.08;1729022;83;21148;-72
2021/05/08 01:30:33;;;;;;;8.58;5.95;;;;;;;10.02;100.00;98421.22;1729269;82;21376;-72
2021/05/08 01:33:05;;;;;;;10.03;5.67;;;;;;;10.00;100.00;98422.13;1729269;83;21005;-73
2021/05/08 01:35:34;;;;;;;10.05;5.92;;;;;;;9.99;100.00;98417.78;1728889;83;21124;-72
2021/05/08 01:38:03;;;;;;;8.40;6.08;;;;;;;9.98;100.00;98410.70;1699958;83;21174;-75
2021/05/08 01:40:38;;;;;;;8.45;6.60;;;;;;;9.97;100.00;98411.84;1725786;83;21031;-74
2021/05/08 01:43:07;;;;;;;9.58;6.72;;;;;;;9.94;100.00;98403.16;1725666;83;21378;-73
2021/05/08 01:45:35;;;;;;;10.53;7.50;;;;;;;9.94;100.00;98407.27;1725639;83;21173;-72
2021/05/08 01:48:06;;;;;;;9.70;6.87;;;;;;;9.94;100.00;98406.46;1725759;83;21195;-73
2021/05/08 01:50:33;;;;;;;11.53;7.03;;;;;;;9.95;100.00;98398.47;1725746;83;21641;-73
2021/05/08 01:53:01;;;;;;;10.05;7.00;;;;;;;9.95;100.00;98386.13;1725781;83;21153;-73
2021/05/08 01:55:29;;;;;;;7.85;6.47;;;;;;;9.93;100.00;98386.47;1725599;83;22350;-71
2021/05/08 01:57:59;;;;;;;8.30;6.67;;;;;;;9.93;100.00;98396.06;1725685;83;21180;-74
2021/05/08 02:00:34;;;;;;;10.95;7.58;;;;;;;9.92;100.00;98408.17;1725694;83;21518;-75
2021/05/08 02:03:02;;;;;;;12.05;7.55;;;;;;;9.91;100.00;98406.57;1725672;83;21193;-72
2021/05/08 02:05:33;;;;;;;11.40;6.95;;;;;;;9.88;100.00;98403.14;1725549;83;21174;-71
2021/05/08 02:08:06;;;;;;;19.35;7.80;;;;;;;9.86;100.00;98397.19;1725443;83;21574;-72
2021/05/08 02:10:35;;;;;;;10.23;7.03;;;;;;;9.87;100.00;98396.62;1725717;83;21074;-73
2021/05/08 02:13:04;;;;;;;9.95;7.05;;;;;;;9.84;100.00;98398.09;1725739;83;21016;-75
2021/05/08 02:15:34;;;;;;;9.68;7.45;;;;;;;9.84;100.00;98398.09;1737579;81;21467;-76
2021/05/08 02:18:04;;;;;;;10.88;8.18;;;;;;;9.85;100.00;98399.70;1755781;81;21102;-74
2021/05/08 02:20:36;;;;;;;11.22;7.50;;;;;;;9.84;100.00;98391.25;1755768;81;21433;-71
2021/05/08 02:23:11;;;;;;;12.78;7.85;;;;;;;9.84;100.00;98384.96;1755815;81;20956;-71
2021/05/08 02:25:40;;;;;;;9.38;7.60;;;;;;;9.82;100.00;98386.67;1755558;81;21076;-72
2021/05/08 02:28:09;;;;;;;12.55;7.97;;;;;;;9.83;100.00;98386.10;1755880;81;21030;-72
2021/05/08 02:30:41;;;;;;;9.35;7.72;;;;;;;9.82;100.00;98389.41;1729320;81;21135;-72
2021/05/08 02:33:09;;;;;;;11.70;8.15;;;;;;;9.83;100.00;98385.53;1727988;81;22256;-72
2021/05/08 02:35:37;;;;;;;15.00;9.03;;;;;;;9.84;100.00;98379.48;1755594;81;21190;-72
2021/05/08 02:38:06;;;;;;;11.63;7.83;;;;;;;9.84;100.00;98384.39;1763648;81;21058;-73
2021/05/08 02:40:37;;;;;;;12.75;7.30;;;;;;;9.86;100.00;98382.69;1734921;81;21176;-73
2021/05/08 02:43:05;;;;;;;10.75;8.35;;;;;;;9.86;100.00;98388.16;1735119;82;21079;-74
2021/05/08 02:45:34;;;;;;;9.88;8.65;;;;;;;9.85;100.00;98396.95;1751512;81;22339;-73
2021/05/08 02:48:04;;;;;;;17.20;8.45;;;;;;;9.85;100.00;98404.38;1764074;81;21598;-74
2021/05/08 02:50:33;;;;;;;12.68;8.55;;;;;;;9.86;100.00;98412.84;1767116;80;21148;-74
2021/05/08 02:53:02;;;;;;;13.65;11.20;;;;;;;9.85;100.00;98408.49;1767000;81;21187;-74
2021/05/08 02:55:33;;;;;;;15.75;13.65;;;;;;;9.85;100.00;98402.44;1767010;81;21499;-74
2021/05/08 02:58:03;;;;;;;19.57;13.15;;;;;;;9.85;100.00;98402.44;1767093;81;21367;-73
2021/05/08 03:00:32;;;;;;;14.95;9.28;;;;;;;9.85;100.00;98389.30;1767338;79;20982;-76
2021/05/08 03:03:01;;;;;;;15.28;9.30;;;;;;;9.87;100.00;98399.36;1767005;80;21195;-75
2021/05/08 03:05:32;;;;;;;14.35;8.90;;;;;;;9.86;100.00;98401.88;1766995;81;21148;-73
2021/05/08 03:08:03;;;;;;;9.98;7.55;;;;;;;9.86;100.00;98406.78;1766943;80;21144;-72
2021/05/08 03:10:31;;;;;;;13.50;9.03;;;;;;;9.87;100.00;98402.91;1767171;80;21368;-73
2021/05/08 03:13:00;;;;;;;10.85;8.65;;;;;;;9.85;100.00;98398.33;1767038;80;21068;-73
2021/05/08 03:15:29;;;;;;;13.83;9.55;;;;;;;9.85;100.00;98392.05;1755716;81;21024;-73
2021/05/08 03:17:57;;;;;;;11.57;8.65;;;;;;;9.85;100.00;98387.94;1740881;81;21067;-73
2021/05/08 03:20:25;;;;;;;12.28;8.33;;;;;;;9.85;100.00;98391.48;1767300;81;21068;-72
2021/05/08 03:22:54;;;;;;;16.85;9.50;;;;;;;9.83;100.00;98386.10;1767129;81;21360;-73
2021/05/08 03:25:22;;;;;;;11.63;8.40;;;;;;;9.84;100.00;98386.33;1751874;81;21565;-73
2021/05/08 03:27:50;;;;;;;14.85;9.60;;;;;;;9.83;100.00;98381.42;1767121;80;21021;-73
2021/05/08 03:30:19;;;;;;;13.03;8.53;;;;;;;9.83;100.00;98386.10;1766534;80;21583;-73
2021/05/08 03:32:49;;;;;;;13.20;10.00;;;;;;;9.83;100.00;98385.53;1766573;80;21184;-74
2021/05/08 03:35:17;;;;;;;14.50;10.65;;;;;;;9.85;100.00;98403.02;1766551;80;22807;-72
2021/05/08 03:37:45;;;;;;;20.95;10.30;;;;;;;9.86;100.00;98391.70;1765213;80;20942;-75
2021/05/08 03:40:16;;;;;;;17.10;10.23;;;;;;;9.88;100.00;98390.00;1763665;81;21124;-72
2021/05/08 03:42:45;;;;;;;16.57;11.50;;;;;;;9.87;100.00;98392.51;1763575;80;21167;-71
2021/05/08 03:45:14;;;;;;;14.55;9.90;;;;;;;9.87;100.00;98406.22;1764224;81;20981;-76
2021/05/08 03:47:42;;;;;;;13.03;10.48;;;;;;;9.86;100.00;98397.77;1764258;80;21262;-75
2021/05/08 03:50:11;;;;;;;15.78;11.38;;;;;;;9.85;100.00;98403.02;1764116;81;20986;-72
2021/05/08 03:52:39;;;;;;;17.00;11.60;;;;;;;9.86;100.00;98415.58;1764167;81;21029;-71
2021/05/08 03:55:07;;;;;;;14.25;11.63;;;;;;;9.86;100.00;98419.12;1764160;81;21603;-73
2021/05/08 03:57:35;;;;;;;17.42;11.78;;;;;;;9.91;100.00;98416.16;1764336;80;21036;-74
2021/05/08 04:00:05;;;;;;;18.37;12.37;;;;;;;9.94;100.00;98417.42;1764597;81;21317;-71
2021/05/08 04:02:34;;;;;;;20.95;12.98;;;;;;;9.95;100.00;98428.63;1763982;80;20946;-72
2021/05/08 04:05:02;;;;;;;19.32;11.50;;;;;;;9.95;100.00;98434.11;1764536;81;20997;-75
2021/05/08 04:07:30;;;;;;;16.97;13.30;;;;;;;9.93;100.00;98444.05;1764486;81;21011;-76
2021/05/08 04:09:58;;;;;;;18.25;13.75;;;;;;;9.94;100.00;98440.16;1764530;81;21076;-75
2021/05/08 04:12:25;;;;;;;19.82;13.83;;;;;;;9.96;100.00;98449.42;1764551;81;21887;-73
2021/05/08 04:14:52;;;;;;;19.82;13.83;;;;;;;9.96;100.00;98454.10;1764605;81;21147;-73
2021/05/08 04:17:20;;;;;;;19.57;14.15;;;;;;;9.94;100.00;98459.35;1764742;81;21124;-73
2021/05/08 04:19:48;;;;;;;16.35;12.85;;;;;;;9.93;100.00;98453.64;1746826;81;21191;-73
2021/05/08 04:22:16;;;;;;;19.17;12.45;;;;;;;9.89;100.00;98455.45;1763353;80;21168;-73
2021/05/08 04:24:43;;;;;;;18.42;12.78;;;;;;;9.88;100.00;98460.70;1764170;80;21801;-73
2021/05/08 04:27:11;;;;;;;16.05;11.55;;;;;;;9.85;100.00;98465.48;1764285;81;20985;-73
2021/05/08 04:29:38;;;;;;;16.02;11.55;;;;;;;9.84;100.00;98471.30;1764516;80;21572;-73
2021/05/08 04:32:06;;;;;;;19.17;12.05;;;;;;;9.79;100.00;98475.08;1763951;81;21175;-73
2021/05/08 04:34:33;;;;;;;16.23;10.98;;;;;;;9.75;100.00;98482.95;1763039;81;21151;-73
2021/05/08 04:37:02;;;;;;;15.48;11.57;;;;;;;9.70;100.00;98475.73;1763794;81;21362;-72
2021/05/08 04:39:30;;;;;;;16.25;10.28;;;;;;;9.66;100.00;98488.50;1757785;81;21203;-73
2021/05/08 04:41:57;;;;;;;15.18;11.20;;;;;;;9.62;100.00;98504.00;1758288;81;21104;-73
2021/05/08 04:44:25;;;;;;;15.03;11.00;;;;;;;9.58;100.00;98503.87;1758375;81;21111;-73
2021/05/08 04:46:52;;;;;;;15.93;12.13;;;;;;;9.55;100.00;98505.91;1758478;81;21105;-73
2021/05/08 04:49:20;;;;;;;13.68;10.00;;;;;;;9.56;100.00;98512.98;1758960;81;21356;-73
2021/05/08 04:51:48;;;;;;;16.45;9.90;;;;;;;9.54;100.00;98515.83;1758960;80;21513;-74
2021/05/08 04:54:15;;;;;;;20.12;10.28;;;;;;;9.51;100.00;98514.55;1759064;80;20934;-73
2021/05/08 04:56:43;;;;;;;14.03;9.75;;;;;;;9.48;100.00;98520.70;1758951;81;21599;-74
2021/05/08 04:59:10;;;;;;;14.80;10.90;;;;;;;9.46;100.00;98523.54;1759113;81;21109;-73
2021/05/08 05:01:38;;;;;;;18.65;10.68;;;;;;;9.44;100.00;98520.33;1759074;80;22258;-73
2021/05/08 05:04:05;;;;;;;9.90;7.75;;;;;;;9.43;100.00;98518.73;1758950;81;20950;-73
2021/05/08 05:06:32;;;;;;;11.00;8.55;;;;;;;9.40;100.00;98516.65;1759099;80;21548;-73
2021/05/08 05:09:01;;;;;;;9.48;7.28;;;;;;;9.36;100.00;98521.19;1758974;81;21576;-73
2021/05/08 05:11:29;;;;;;;11.15;7.70;;;;;;;9.30;100.00;98521.95;1759051;81;21481;-72
2021/05/08 05:13:57;;;;;;;13.10;8.18;;;;;;;9.26;100.00;98525.92;1759024;81;21517;-72
2021/05/08 05:16:26;;;;;;;12.00;9.15;;;;;;;9.24;100.00;98528.78;1758897;81;21006;-72
2021/05/08 05:18:54;;;;;;;11.10;7.30;;;;;;;9.21;100.00;98528.88;1758963;81;21045;-72
2021/05/08 05:21:21;;;;;;;10.08;7.70;;;;;;;9.18;100.00;98525.43;1758987;81;21562;-72
2021/05/08 05:23:50;;;;;;;8.13;6.45;;;;;;;9.15;100.00;98538.41;1759008;81;21112;-75
2021/05/08 05:26:17;;;;;;;7.85;6.87;;;;;;;9.13;100.00;98535.20;1758971;81;21184;-75
2021/05/08 05:28:45;;;;;;;11.65;7.53;;;;;;;9.14;100.00;98537.37;1758895;81;20946;-73
2021/05/08 05:31:14;;;;;;;8.98;6.80;;;;;;;9.14;100.00;98541.48;1758980;81;21009;-72
2021/05/08 05:33:42;;;;;;;10.35;6.55;;;;;;;9.14;100.00;98542.85;1758970;81;21022;-72
2021/05/08 05:36:10;;;;;;;7.78;6.45;;;;;;;9.10;100.00;98548.19;1755949;80;21702;-73
2021/05/08 05:38:38;;;;;;;10.45;6.58;;;;;;;9.07;100.00;98540.63;1746020;81;21618;-73
2021/05/08 05:41:05;;;;;;;7.80;6.33;;;;;;;9.04;100.00;98539.12;1740807;81;20942;-72
2021/05/08 05:43:33;;;;;;;9.20;7.45;;;;;;;9.01;100.00;98541.95;1740496;81;21041;-72
2021/05/08 05:46:02;;;;;;;8.23;6.58;;;;;;;9.00;100.00;98539.53;1747854;81;21571;-72
2021/05/08 05:48:29;;;;;;;12.63;6.78;;;;;;;9.01;100.00;98542.52;1746348;81;21188;-72
2021/05/08 05:50:56;;;;;;;7.15;6.35;;;;;;;9.00;100.00;98559.50;1747723;80;22617;-74
2021/05/08 05:53:24;;;;;;;9.23;7.08;;;;;;;8.98;100.00;98557.66;1752449;80;21121;-72
2021/05/08 05:55:51;;;;;;;7.42;6.40;;;;;;;8.98;100.00;98554.92;1747459;81;21156;-73
2021/05/08 05:58:18;;;;;;;9.05;6.92;;;;;;;8.98;100.00;98561.77;1752532;80;21045;-72
2021/05/08 06:00:49;;;;;;;7.33;6.53;;;;;;;8.95;100.00;98574.74;1754916;80;21634;-73
2021/05/08 06:03:16;;;;;;;9.18;6.03;;;;;;;8.90;100.00;98566.14;1756089;80;21630;-72
2021/05/08 06:05:44;;;;;;;11.93;6.25;;;;;;;8.86;100.00;98576.70;1725057;80;21079;-72
2021/05/08 06:08:12;;;;;;;9.05;6.12;;;;;;;8.82;100.00;98578.48;1755299;81;21541;-73
2021/05/08 06:10:39;;;;;;;9.63;6.65;;;;;;;8.78;100.00;98581.08;1750593;80;21069;-71
2021/05/08 06:13:06;;;;;;;8.13;6.97;;;;;;;8.78;100.00;98583.01;1750647;80;21087;-72
2021/05/08 06:15:35;;;;;;;8.38;7.03;;;;;;;8.79;100.00;98585.42;1738380;80;21363;-72
2021/05/08 06:18:02;;;;;;;9.68;6.62;;;;;;;8.78;100.00;98584.37;1731497;80;20961;-71
2021/05/08 06:20:30;;;;;;;14.15;8.33;;;;;;;8.75;100.00;98585.03;1722825;80;21012;-72
2021/05/08 06:22:57;;;;;;;12.05;8.30;;;;;;;8.73;100.00;98596.87;1722967;80;21142;-72
2021/05/08 06:25:25;;;;;;;11.57;9.40;;;;;;;8.70;100.00;98599.69;1743844;80;21480;-72
2021/05/08 06:27:54;;;;;;;12.28;9.10;;;;;;;8.67;100.00;98596.80;1720955;82;21535;-73
2021/05/08 06:30:21;;;;;;;13.72;9.73;;;;;;;8.65;100.00;98597.72;1752446;81;21055;-73
2021/05/08 06:32:52;;;;;;;13.15;9.73;;;;;;;8.59;100.00;98605.30;1761089;81;21008;-73
2021/05/08 06:35:19;;;;;;;13.88;10.30;;;;;;;8.54;100.00;98620.52;1729145;83;21021;-73
2021/05/08 06:37:50;;;;;;;14.55;10.48;;;;;;;8.48;100.00;98608.13;1747368;82;21174;-74
2021/05/08 06:40:17;;;;;;;14.93;10.23;;;;;;;8.43;100.00;98617.88;1718841;83;22701;-74
2021/05/08 06:42:45;;;;;;;16.07;11.48;;;;;;;8.39;100.00;98630.02;1718273;82;21204;-72
2021/05/08 06:45:12;;;;;;;15.72;11.43;;;;;;;8.32;100.00;98636.52;1727736;81;21167;-72
2021/05/08 06:47:40;;;;;;;16.87;11.35;;;;;;;8.25;100.00;98635.63;1728009;83;21614;-72
2021/05/08 06:50:09;;;;;;;14.03;10.65;;;;;;;8.18;100.00;98637.23;1727866;83;21168;-72
2021/05/08 06:52:37;;;;;;;18.02;11.08;;;;;;;8.11;100.00;98651.95;1727756;83;21199;-72
2021/05/08 06:55:06;;;;;;;13.83;10.50;;;;;;;8.03;100.00;98655.51;1727950;81;21032;-72
2021/05/08 06:57:34;;;;;;;14.93;10.63;;;;;;;7.97;100.00;98658.16;1728004;83;20993;-73
2021/05/08 07:00:02;;;;;;;16.77;11.73;;;;;;;7.92;100.00;98659.11;1727840;83;21187;-73
2021/05/08 07:02:30;;;;;;;16.82;12.15;;;;;;;7.87;100.00;98666.91;1727950;83;21155;-72
2021/05/08 07:04:57;;;;;;;14.98;10.15;;;;;;;7.84;100.00;98682.56;1727945;83;22207;-72
2021/05/08 07:07:25;;;;;;;16.55;10.20;;;;;;;7.79;100.00;98673.72;1727904;83;21084;-71
2021/05/08 07:09:54;;;;;;;11.53;9.15;;;;;;;7.70;100.00;98687.35;1703296;83;21025;-71
2021/05/08 07:12:22;;;;;;;9.98;7.65;;;;;;;7.57;100.00;98710.12;1727709;83;21176;-72
2021/05/08 07:14:49;;;;;;;9.40;7.03;;;;;;;7.44;100.00;98708.34;1702475;83;21215;-73
2021/05/08 07:17:17;;;;;;;9.18;7.40;;;;;;;7.33;100.00;98711.91;1727946;83;21163;-72
2021/05/08 07:19:47;;;;;;;9.70;7.15;;;;;;;7.21;100.00;98720.67;1718589;82;21571;-72
2021/05/08 07:22:14;;;;;;;8.53;6.83;;;;;;;7.13;100.00;98727.45;1701839;83;21571;-71
2021/05/08 07:24:45;;;;;;;11.97;8.28;;;;;;;7.07;100.00;98737.70;1722187;82;21139;-71
2021/05/08 07:27:12;;;;;;;11.28;8.23;;;;;;;7.04;100.00;98741.05;1718959;83;21130;-73
2021/05/08 07:29:42;;;;;;;9.60;7.20;;;;;;;7.00;100.00;98742.78;1727294;83;21282;-76
2021/05/08 07:32:09;;;;;;;12.68;8.55;;;;;;;6.98;100.00;98744.22;1727360;83;21159;-75
2021/05/08 07:34:38;;;;;;;6.87;5.65;;;;;;;6.96;100.00;98742.61;1722837;82;21015;-73
2021/05/08 07:37:06;;;;;;;6.47;5.30;;;;;;;6.94;100.00;98753.02;1700181;83;21505;-74
2021/05/08 07:39:33;;;;;;;10.10;5.67;;;;;;;6.93;100.00;98750.64;1732706;80;21135;-73
2021/05/08 07:42:01;;;;;;;7.53;5.03;;;;;;;6.92;100.00;98758.58;1733824;82;21820;-74
2021/05/08 07:44:29;;;;;;;5.58;4.10;;;;;;;6.88;100.00;98766.57;1747079;82;21163;-74
2021/05/08 07:46:59;;;;;;;4.97;4.15;;;;;;;6.86;100.00;98774.81;1747057;82;21527;-74
2021/05/08 07:49:27;;;;;;;6.87;3.70;;;;;;;6.84;100.00;98771.59;1747173;82;21176;-74
2021/05/08 07:51:55;;;;;;;6.22;4.05;;;;;;;6.82;100.00;98784.17;1747306;82;21055;-74
2021/05/08 07:54:22;;;;;;;4.53;3.20;;;;;;;6.83;100.00;98783.63;1747302;82;21645;-73
2021/05/08 07:56:49;;;;;;;4.72;3.30;;;;;;;6.86;100.00;98787.09;1743531;81;21172;-74
2021/05/08 07:59:18;;;;;;;3.70;2.92;;;;;;;6.85;100.00;98789.58;1726575;83;21163;-73
2021/05/08 08:01:45;;;;;;;2.98;2.47;;;;;;;6.80;100.00;98797.88;1745835;82;21153;-73
2021/05/08 08:04:13;;;;;;;3.67;2.27;;;;;;;6.79;100.00;98794.91;1745995;82;21161;-71
2021/05/08 08:06:41;;;;;;;8.10;2.52;;;;;;;6.72;100.00;98799.98;1726337;81;21821;-73
2021/05/08 08:09:09;;;;;;;2.92;1.42;;;;;;;6.72;100.00;98799.98;1725207;81;21602;-74
2021/05/08 08:11:38;;;;;;;2.05;1.55;;;;;;;6.68;100.00;98791.61;1724666;83;21041;-75
2021/05/08 08:14:05;;;;;;;2.52;1.70;;;;;;;6.65;100.00;98795.50;1724940;81;21592;-73
2021/05/08 08:16:33;;;;;;;3.72;1.30;;;;;;;6.68;100.00;98811.25;1724999;83;21139;-71
2021/05/08 08:19:01;;;;;;;1.47;1.25;;;;;;;6.70;100.00;98813.12;1724408;81;21362;-71
2021/05/08 08:21:28;;;;;;;1.77;1.22;;;;;;;6.70;100.00;98813.12;1724668;83;21166;-72
2021/05/08 08:23:56;;;;;;;2.75;1.50;;;;;;;6.65;100.00;98799.04;1729057;81;21177;-71
2021/05/08 08:26:24;;;;;;;2.00;1.45;;;;;;;6.72;100.00;98806.80;1736452;82;21017;-71
2021/05/08 08:28:52;;;;;;;2.30;1.87;;;;;;;6.77;100.00;98810.22;1751521;81;21170;-72
2021/05/08 08:31:19;;;;;;;3.12;2.15;;;;;;;6.85;100.00;98801.30;1752708;81;21394;-73
2021/05/08 08:33:47;;;;;;;2.95;2.05;;;;;;;6.94;100.00;98814.98;1752886;81;21166;-73
2021/05/08 08:36:16;;;;;;;2.60;1.92;;;;;;;7.03;100.00;98810.39;1752509;81;21031;-72
2021/05/08 08:38:46;;;;;;;4.28;2.40;;;;;;;7.11;100.00;98815.66;1748412;81;21127;-70
2021/05/08 08:41:14;;;;;;;3.52;2.02;;;;;;;7.19;100.00;98813.00;1736397;82;21209;-71
2021/05/08 08:43:42;;;;;;;3.67;2.30;;;;;;;7.32;100.00;98811.31;1761559;81;21516;-72
2021/05/08 08:46:12;;;;;;;2.87;1.57;;;;;;;7.43;100.00;98825.52;1731822;82;21163;-72
2021/05/08 08:48:40;;;;;;;2.60;2.02;;;;;;;7.51;100.00;98827.48;1734039;81;21573;-71
2021/05/08 08:51:08;;;;;;;5.47;2.87;;;;;;;7.57;100.00;98820.75;1759106;80;21196;-70
2021/05/08 08:53:36;;;;;;;4.47;2.70;;;;;;;7.69;100.00;98825.06;1750751;81;21148;-71
2021/05/08 08:56:06;;;;;;;3.95;2.30;;;;;;;7.85;100.00;98822.17;1727824;81;22278;-69
2021/05/08 09:01:18;;;;;;;4.17;2.27;;;;;;;8.10;99.73;98830.20;1866141;75;22734;-73
2021/05/08 09:03:46;;;;;;;2.95;2.10;;;;;;;8.07;99.65;98828.69;1756058;81;20985;-76
2021/05/08 09:06:14;;;;;;;2.83;2.20;;;;;;;8.08;96.94;98830.30;1771827;80;21387;-77
2021/05/08 09:08:43;;;;;;;2.83;2.20;;;;;;;8.19;97.91;98832.40;1756084;81;21630;-72
2021/05/08 09:11:23;;;;;;;3.22;2.20;;;;;;;8.52;100.00;98826.56;1774095;80;20959;-73
2021/05/08 09:14:18;;;;;;;3.25;2.42;;;;;;;9.00;99.88;98826.98;1768388;80;21085;-70
2021/05/08 09:17:11;;;;;;;5.47;2.08;;;;;;;9.50;96.51;98829.95;1768622;80;21628;-71
2021/05/08 09:19:43;;;;;;;4.05;2.08;;;;;;;9.87;89.52;98827.00;1747894;80;20977;-72
2021/05/08 09:22:37;;;;;;;6.80;2.70;;;;;;;10.11;90.38;98829.16;1782324;79;21651;-74
2021/05/08 09:25:16;;;;;;;2.67;2.12;;;;;;;10.37;86.44;98823.58;1768507;80;21155;-77
2021/05/08 09:27:51;;;;;;;2.20;1.80;;;;;;;10.49;84.19;98824.44;1779702;80;21167;-74
2021/05/08 09:30:26;;;;;;;2.42;1.82;;;;;;;10.36;81.16;98825.52;1782492;79;21533;-75
2021/05/08 09:32:59;;;;;;;1.62;1.40;;;;;;;10.19;82.24;98829.69;1777932;80;21184;-74
2021/05/08 09:35:35;;;;;;;6.90;1.90;;;;;;;10.15;83.80;98827.37;1778162;80;21145;-75
2021/05/08 09:40:53;;;;;;;4.15;2.27;;;;;;;9.89;83.02;98826.11;1871771;75;22275;-74
2021/05/08 09:43:21;;;;;;;2.83;1.70;;;;;;;9.63;83.51;98838.55;1840486;78;21015;-75
2021/05/08 09:45:53;;;;;;;3.58;1.77;;;;;;;9.39;85.11;98834.16;1833426;76;21347;-74
2021/05/08 09:48:32;;;;;;;2.77;1.80;;;;;;;9.08;85.72;98855.72;1860623;76;21602;-74
2021/05/08 09:51:26;;;;;;;2.45;1.10;;;;;;;8.83;88.65;98866.09;1847443;77;20984;-74
2021/05/08 09:54:04;;;;;;;2.17;1.42;;;;;;;8.68;88.27;98850.94;1840583;78;20968;-75
2021/05/08 09:56:40;;;;;;;6.58;1.72;;;;;;;8.75;91.35;98862.78;1837072;78;21043;-74
2021/05/08 09:59:27;;;;;;;2.95;1.45;;;;;;;8.90;92.34;98869.16;1840617;78;22217;-70
2021/05/08 10:02:09;;;;;;;2.12;1.55;;;;;;;8.94;86.61;98872.87;1848121;77;21303;-74
2021/05/08 10:07:21;;;;;;;2.33;2.00;;;;;;;8.18;90.62;98896.41;1872486;76;22581;-77
2021/05/08 10:09:59;;;;;;;5.05;2.60;;;;;;;7.97;93.15;98919.16;1840236;77;20984;-74
2021/05/08 10:12:29;;;;;;;4.22;3.10;;;;;;;7.80;94.21;98919.31;1830495;76;21177;-75
2021/05/08 10:14:59;;;;;;;5.50;3.87;;;;;;;7.69;95.41;98912.49;1819264;78;21145;-75
2021/05/08 10:17:29;;;;;;;6.83;4.90;;;;;;;7.55;95.20;98927.58;1802229;79;21167;-77
2021/05/08 10:20:05;;;;;;;6.08;5.08;;;;;;;7.45;96.80;98918.86;1791261;80;21012;-74
2021/05/08 10:22:44;;;;;;;6.72;4.80;;;;;;;7.39;97.70;98925.56;1791265;80;21753;-74
2021/05/08 10:25:12;;;;;;;5.40;4.22;;;;;;;7.38;99.05;98934.30;1777645;80;21205;-74
2021/05/08 10:27:40;;;;;;;5.50;4.00;;;;;;;7.45;99.30;98928.41;1791122;80;20984;-73
2021/05/08 10:30:36;;;;;;;5.62;3.40;;;;;;;7.65;100.00;98922.42;1791264;78;21139;-74
2021/05/08 10:33:17;;;;;;;4.65;3.62;;;;;;;7.85;100.00;98928.75;1791309;80;21157;-73
2021/05/08 10:35:52;;;;;;;3.90;3.40;;;;;;;8.09;98.72;98932.47;1791261;80;21168;-73
2021/05/08 10:41:06;;;;;;;4.67;3.62;;;;;;;8.53;97.36;98928.83;1888923;76;22653;-72
2021/05/08 10:46:28;;;;;;;5.47;2.80;;;;;;;8.85;92.33;98941.84;1882544;75;22686;-73
2021/05/08 10:49:14;;;;;;;3.02;2.30;;;;;;;8.80;91.92;98940.63;1808715;77;20985;-70
2021/05/08 10:51:57;;;;;;;3.15;2.05;;;;;;;8.74;89.70;98940.53;1821030;77;21001;-72
2021/05/08 10:54:43;;;;;;;4.60;2.70;;;;;;;8.77;89.68;98944.00;1815241;78;21009;-72
2021/05/08 10:57:21;;;;;;;3.55;1.70;;;;;;;8.93;91.11;98944.60;1815602;79;22075;-72
2021/05/08 11:00:09;;;;;;;2.45;1.95;;;;;;;9.19;86.09;98943.84;1815195;79;20993;-73
2021/05/08 11:02:47;;;;;;;2.35;1.87;;;;;;;9.30;84.84;98942.93;1819164;77;21066;-72
2021/05/08 11:05:26;;;;;;;3.05;2.27;;;;;;;9.25;82.57;98948.00;1815818;77;22275;-72
2021/05/08 11:07:55;;;;;;;3.00;2.10;;;;;;;9.24;84.52;98948.56;1825059;77;21034;-72
2021/05/08 11:10:37;;;;;;;3.58;2.17;;;;;;;9.38;85.64;98959.37;1817510;78;21010;-70
2021/05/08 11:13:14;;;;;;;4.53;2.10;;;;;;;9.46;82.05;98956.39;1836657;77;21132;-72
2021/05/08 11:16:03;;;;;;;3.47;1.98;;;;;;;9.35;83.36;98965.49;1826457;77;21112;-71
2021/05/08 11:18:41;;;;;;;2.90;2.00;;;;;;;9.24;83.78;98973.21;1838107;77;22163;-70
2021/05/08 11:21:19;;;;;;;3.90;1.90;;;;;;;9.11;83.80;98979.66;1848476;77;21533;-70
2021/05/08 11:23:52;;;;;;;4.10;1.90;;;;;;;9.05;83.08;98964.52;1847940;77;21179;-71
2021/05/08 11:26:29;;;;;;;4.62;2.30;;;;;;;8.96;82.79;98990.26;1829593;77;21147;-73
2021/05/08 11:29:26;;;;;;;3.42;1.67;;;;;;;8.81;84.19;99014.77;1818428;76;21216;-70
2021/05/08 11:31:58;;;;;;;7.25;1.80;;;;;;;8.57;80.93;99009.15;1822654;77;21362;-70
2021/05/08 11:34:33;;;;;;;5.67;1.95;;;;;;;8.35;82.42;99019.33;1838974;76;21115;-71
2021/05/08 11:37:07;;;;;;;2.67;1.50;;;;;;;8.29;83.31;99018.06;1842415;76;21060;-70
2021/05/08 11:39:38;;;;;;;3.55;1.15;;;;;;;8.51;81.55;99032.29;1859908;76;21131;-69
2021/05/08 11:42:19;;;;;;;2.20;1.50;;;;;;;8.78;77.22;99017.58;1866293;76;21583;-71
2021/05/08 11:44:52;;;;;;;3.95;1.50;;;;;;;8.96;77.80;99023.11;1820431;77;21582;-71
2021/05/08 11:47:28;;;;;;;4.47;1.62;;;;;;;9.10;79.30;99037.48;1819127;78;20970;-72
2021/05/08 11:50:10;;;;;;;3.95;1.30;;;;;;;9.14;77.50;99054.33;1818682;78;21180;-74
2021/05/08 11:52:49;;;;;;;2.70;1.20;;;;;;;9.15;76.05;99053.20;1819527;77;21120;-73
2021/05/08 11:55:23;;;;;;;2.40;1.47;;;;;;;9.11;74.02;99061.81;1819111;78;21183;-74
2021/05/08 11:58:00;;;;;;;7.08;1.30;;;;;;;9.00;72.27;99059.12;1818360;78;21367;-74